Portada
METAR-TAF:

METAR-TAF

Aeropuertos :

Belgrado, Serbia

Aeropuerto de Belgrado-Nikola Tesla

latitud: 44-49N, longitud: 020-17E, altitud: 96 m

Observación

El informe se hizo hace 29 minutos, a las 21:30 UTC
Viento 1 kt con dirección variable
Temperatura 12°C
Humedad 76%
Presión 1021 hPa
Visibilidad 10 km o más
sin nubes por debajo de 1500 m y sin presencia de cumulonimbus.

METAR: LYBE 232130Z VRB01KT CAVOK 12/08 Q1021 NOSIG

Hora: 23:59 (21:59 UTC)

Pronóstico

El informe se hizo hace 4 horas y 59 minutos, a las 17:00 UTC
Pronóstico válido del 23 a las 18 UTC al 24 a las 18 UTC
Viento 6 kt del oeste-suroeste
Visibilidad 10 km o más
Nubes dispersas a una altura de 4000 ft

TAF: LYBE 231700Z 2318/2418 25006KT 9999 SCT040 TX21/2412Z TN10/2404Z

Observaciones y pronósticos meteorológicos de más de 4000 aeropuertos (mensajes METAR y TAF).

Los puntos amarillos y rojos representan las estaciones disponibles.

Ponga el ratón en el punto deseado para ver el nombre de la estación.

Haga clic para ver las observaciones y los pronósticos meteorológicos.

Para cambiar el mapa : haga clic en los botones verdes con una cruz de color negro para hacer un zoom, en el botón verde con un guión para alejar o en las flechas verdes para mapas adyacentes.


METAR-TAF: